createdAt,value
2022-10-30T00:05:01.568Z,11.69
2022-10-30T00:15:03.980Z,11.62
2022-10-30T00:25:06.094Z,11.65
2022-10-30T00:35:08.482Z,11.67
2022-10-30T00:45:15.164Z,11.63
2022-10-30T00:55:22.698Z,11.69
2022-10-30T01:05:28.778Z,11.74
2022-10-30T01:15:38.209Z,11.54
2022-10-30T01:25:57.051Z,11.53
2022-10-30T01:36:10.121Z,11.55
2022-10-30T01:46:39.641Z,11.63
2022-10-30T01:56:50.025Z,11.72
2022-10-30T02:06:52.718Z,11.62
2022-10-30T02:16:58.997Z,11.61
2022-10-30T02:27:01.260Z,11.73
2022-10-30T02:37:04.328Z,11.68
2022-10-30T02:47:06.614Z,11.70
2022-10-30T02:57:10.321Z,11.70
2022-10-30T03:07:12.432Z,11.60
2022-10-30T03:17:14.043Z,11.47
2022-10-30T03:27:16.684Z,11.56
2022-10-30T03:37:18.245Z,11.54
2022-10-30T03:47:19.878Z,11.61
2022-10-30T03:57:21.706Z,11.55
2022-10-30T04:07:24.561Z,11.44
2022-10-30T04:17:26.251Z,11.23
2022-10-30T04:27:27.904Z,11.31
2022-10-30T04:37:29.526Z,11.20
2022-10-30T04:57:37.211Z,11.00
2022-10-30T05:07:38.864Z,11.05
2022-10-30T05:17:41.035Z,11.15
2022-10-30T05:27:42.751Z,11.08
2022-10-30T05:37:45.364Z,11.04
2022-10-30T05:47:56.569Z,11.26
2022-10-30T05:58:04.685Z,11.45
2022-10-30T06:08:07.496Z,11.67
2022-10-30T06:18:09.121Z,11.49
2022-10-30T06:28:11.572Z,11.54
2022-10-30T06:38:13.285Z,11.62
2022-10-30T06:48:18.852Z,11.76
2022-10-30T06:58:21.704Z,11.79
2022-10-30T07:08:23.512Z,11.76
2022-10-30T07:18:26.224Z,11.72
2022-10-30T07:28:29.232Z,11.75
2022-10-30T07:38:32.824Z,11.84
2022-10-30T07:48:37.568Z,11.97
2022-10-30T07:58:45.239Z,12.07
2022-10-30T08:08:49.452Z,12.32
2022-10-30T08:18:51.099Z,12.15
2022-10-30T08:28:52.648Z,12.40
2022-10-30T08:38:54.211Z,12.43
2022-10-30T08:48:56.032Z,12.82
2022-10-30T08:58:57.629Z,13.14
2022-10-30T09:09:07.779Z,13.05
2022-10-30T09:19:12.554Z,13.20
2022-10-30T09:29:22.338Z,13.30
2022-10-30T09:39:25.409Z,13.78
2022-10-30T09:50:04.131Z,14.08
2022-10-30T10:00:11.623Z,13.80
2022-10-30T10:10:39.932Z,14.06
2022-10-30T10:20:47.212Z,14.47
2022-10-30T10:31:21.786Z,14.55
2022-10-30T10:41:29.160Z,14.17
2022-10-30T10:51:44.099Z,14.57
2022-10-30T11:02:03.039Z,14.73
2022-10-30T11:12:08.875Z,15.02
2022-10-30T11:22:26.409Z,14.84
2022-10-30T11:32:33.632Z,15.05
2022-10-30T11:42:36.266Z,15.52
2022-10-30T11:52:42.170Z,15.83
2022-10-30T12:02:47.007Z,15.55
2022-10-30T12:12:51.319Z,15.01
2022-10-30T12:22:53.302Z,15.71
2022-10-30T12:33:07.472Z,15.76
2022-10-30T12:43:19.690Z,15.75
2022-10-30T12:53:37.724Z,16.44
2022-10-30T13:03:59.259Z,16.26
2022-10-30T13:14:04.268Z,15.62
2022-10-30T13:24:12.298Z,15.13
2022-10-30T13:34:45.146Z,14.73
2022-10-30T13:45:24.907Z,14.67
2022-10-30T13:55:39.527Z,14.39
2022-10-30T14:06:02.362Z,14.62
2022-10-30T14:16:07.545Z,14.46
2022-10-30T14:26:21.052Z,14.59
2022-10-30T14:36:47.366Z,14.49
2022-10-30T14:47:02.844Z,14.20
2022-10-30T14:57:21.177Z,13.98
2022-10-30T15:07:38.029Z,13.51
2022-10-30T15:17:43.215Z,13.17
2022-10-30T15:27:57.738Z,12.81
2022-10-30T15:38:05.782Z,12.66
2022-10-30T15:48:25.169Z,12.55
2022-10-30T15:58:32.172Z,12.50
2022-10-30T16:08:44.977Z,12.50
2022-10-30T16:18:48.960Z,12.49
2022-10-30T16:28:59.536Z,12.48
2022-10-30T16:49:35.012Z,12.48
2022-10-30T16:59:46.630Z,12.49
2022-10-30T17:10:26.514Z,12.49
2022-10-30T17:20:31.040Z,12.48
2022-10-30T17:30:42.007Z,12.47
2022-10-30T17:40:44.462Z,12.49
2022-10-30T17:50:46.185Z,12.52
2022-10-30T18:00:48.735Z,12.50
2022-10-30T18:10:53.718Z,12.48
2022-10-30T18:20:57.232Z,12.44
2022-10-30T18:31:01.620Z,12.38
2022-10-30T18:41:03.969Z,12.22
2022-10-30T18:51:18.481Z,12.22
2022-10-30T19:01:22.280Z,12.19
2022-10-30T19:11:26.720Z,12.13
2022-10-30T19:21:32.347Z,12.24
2022-10-30T19:31:34.363Z,12.21
2022-10-30T19:41:37.439Z,12.00
2022-10-30T19:51:39.752Z,12.00
2022-10-30T20:01:42.213Z,12.03
2022-10-30T20:11:44.147Z,11.98
2022-10-30T20:21:46.087Z,11.96
2022-10-30T20:31:50.252Z,11.92
2022-10-30T20:41:52.171Z,11.96
2022-10-30T20:51:54.916Z,12.00
2022-10-30T21:01:56.555Z,11.87
2022-10-30T21:11:58.669Z,11.84
2022-10-30T21:22:04.597Z,11.68
2022-10-30T21:32:06.673Z,11.61
2022-10-30T21:42:09.432Z,11.59
2022-10-30T21:52:12.275Z,11.41
2022-10-30T22:02:16.020Z,11.48
2022-10-30T22:12:20.320Z,11.44
2022-10-30T22:22:22.382Z,11.36
2022-10-30T22:32:37.137Z,11.37
2022-10-30T22:42:41.183Z,11.46
2022-10-30T22:52:43.006Z,11.36
2022-10-30T23:02:44.713Z,11.37
2022-10-30T23:12:46.303Z,11.40
2022-10-30T23:22:48.025Z,11.23
2022-10-30T23:32:51.676Z,11.19
2022-10-30T23:42:55.730Z,11.24
2022-10-30T23:52:57.397Z,11.03
